San Francisco, CA

5:52 AM PST on December 03, 2016 (GMT -0800)
San Francisco International | | Change Station

Elev 16 ft 37.62 °N, 122.37 °W | Updated 56 minutes ago

Partly Cloudy
Partly Cloudy
47 °F
Feels Like 47 °F
N
0
Wind Variable Wind from North

Today
High -- | Low -- °F
--% Chance of Precip.
Yesterday
High -- | Low -- °F
Precip. -- in
Pressure 30.24 in
Visibility 10.0 miles
Clouds Few 1300 ft
Dew Point 39 °F
Humidity 74%
Rainfall 0.00 in
Snow Depth Not available.
7:08 AM 4:50 PM
Waxing Crescent, 15% visible
METAR KSFO 031256Z 00000KT 10SM FEW013 08/04 A3024 RMK AO2 SLP240 T00830039
Pressure 30.24 in
Visibility 10.0 miles
Clouds Few 1300 ft
Dew Point 39 °F
Humidity 74%
Rainfall 0.00 in
Snow Depth Not available.
7:08 AM 4:50 PM
Waxing Crescent, 15% visible
METAR KSFO 031256Z 00000KT 10SM FEW013 08/04 A3024 RMK AO2 SLP240 T00830039

10-Day Weather Forecast

Almanac

Astronomy

Dec. 03, 2016 Rise Set
Actual Time
Civil Twilight
Nautical Twilight
Astronomical Twilight
Moon
Length of Visible Light
Length of Day
Tomorrow will be .
, % of the Moon is Illuminated

Today's Extremes

State Highs State Lows

Community

WunderPhotos

Upload Photos

1,955,446 photos uploaded!

WunderBlog® & News

Nearby

Air Quality

  Air Quality AQ Index Pollutant
Not available.

Snow Depth

Station Depth Elevation

Earthquake Activity

City Distance Mag. Time & Date
Minimum magnitude displayed is 2.5.

Coastal Water Temperatures

Place Temperature

Stations

Nearby Weather Stations

Station Location Temp. Windchill Dew Point Humidity Wind Precip. Elev Updated Type
                   

Watches & Warnings

There are currently no watches in effect.